This is the latest recevied weather packets stored in our database for station/object W4EDL-13. If no packets are shown the sender has not sent any weather packets the latest 1 day(s).
| Time | Temp. | Humidity | Pressure | Rain* | Wind** | Luminosity | Snow |
|---|---|---|---|---|---|---|---|
| 1778094640 | 32.22° C | 40% | 1007.3 hPa | - | - | - | - |
| 1778093439 | 32.22° C | 41% | 1007.3 hPa | - | - | - | - |
| 1778092838 | 32.22° C | 42% | 1007.6 hPa | - | - | - | - |
| 1778091637 | 32.22° C | 41% | 1007.6 hPa | - | - | - | - |
| 1778089835 | 31.11° C | 44% | 1008 hPa | - | - | - | - |
| 1778088634 | 31.67° C | 47% | 1008 hPa | - | - | - | - |
| 1778086832 | 31.11° C | 48% | 1008.3 hPa | - | - | - | - |
| 1778086232 | 31.67° C | 47% | 1008.3 hPa | - | - | - | - |
| 1778085031 | 31.67° C | 37% | 1008.3 hPa | - | - | - | - |
| 1778085030 | 31.67° C | 37% | 1008.3 hPa | - | - | - | - |
| 1778083830 | 30.56° C | 40% | 1008.3 hPa | - | - | - | - |
| 1778083228 | 30° C | 44% | 1008.3 hPa | - | - | - | - |
| 1778082027 | 29.44° C | 52% | 1008.3 hPa | - | - | - | - |
| 1778080225 | 30° C | 56% | 1008.3 hPa | - | - | - | - |
| 1778079026 | 30.56° C | 59% | 1008.3 hPa | - | - | - | - |
| 1778076621 | 27.78° C | 64% | 1008.3 hPa | - | - | - | - |
| 1778076020 | 27.78° C | 66% | 1008.3 hPa | - | - | - | - |
| 1778073618 | 26.67° C | 72% | 1008.3 hPa | - | - | - | - |
| 1778071816 | 25° C | 78% | 1008 hPa | - | - | - | - |
| 1778071215 | 25° C | 78% | 1007.6 hPa | - | - | - | - |
| 1778068813 | 21.67° C | 87% | 1007.6 hPa | - | - | - | - |
| 1778067011 | 18.33° C | 99% | 1007.3 hPa | - | - | - | - |
| 1778065810 | 17.22° C | 99% | 1007.3 hPa | - | - | - | - |
| 1778064609 | 16.67° C | 99% | 1007.3 hPa | - | - | - | - |
| 1778063408 | 17.22° C | 99% | 1006.6 hPa | - | - | - | - |
* Rain since midnight (hover to see other rain measurements)
** Current wind speed in m/s (hover to see current wind gust speed)